Time;durP1;ratioP1;P1;durP2;ratioP2;P2;SDS_P1;SDS_P2;PMS_P1;PMS_P2;Temp;Humidity;BMP_temperature;BMP_pressure;BME280_temperature;BME280_humidity;BME280_pressure;Samples;Min_cycle;Max_cycle;Signal;HPM_P1;HPM_P2
2023/03/16 00:00:15;;;;;;;0.90;0.90;;;;;;;9.85;100.00;99165.72;5091580;28;20213;-72
2023/03/16 00:02:42;;;;;;;0.90;0.90;;;;;;;9.80;100.00;99181.25;5090701;28;20641;-72
2023/03/16 00:05:11;;;;;;;0.75;0.75;;;;;;;9.67;100.00;99178.59;5091999;28;20198;-73
2023/03/16 00:07:38;;;;;;;1.27;1.27;;;;;;;9.71;100.00;99188.97;5092031;28;20283;-73
2023/03/16 00:10:06;;;;;;;0.80;0.80;;;;;;;9.83;100.00;99185.56;5091520;28;20579;-72
2023/03/16 00:12:34;;;;;;;0.80;0.80;;;;;;;9.70;100.00;99171.69;5091756;28;20257;-73
2023/03/16 00:15:02;;;;;;;0.70;0.70;;;;;;;9.81;100.00;99187.28;5091633;28;20239;-73
2023/03/16 00:17:33;;;;;;;0.80;0.80;;;;;;;9.71;100.00;99170.84;5091538;28;20331;-72
2023/03/16 00:20:05;;;;;;;1.35;1.35;;;;;;;9.71;100.00;99195.84;5054315;28;20201;-72
2023/03/16 00:22:32;;;;;;;1.00;1.00;;;;;;;9.67;100.00;99199.28;5091849;28;20263;-72
2023/03/16 00:24:59;;;;;;;0.70;0.70;;;;;;;9.74;100.00;99201.03;5092129;28;20215;-72
2023/03/16 00:27:26;;;;;;;1.50;1.50;;;;;;;9.56;100.00;99195.81;5091537;28;20684;-73
2023/03/16 00:29:55;;;;;;;0.60;0.60;;;;;;;9.52;100.00;99200.09;5091449;28;20205;-72
2023/03/16 00:32:24;;;;;;;1.20;1.20;;;;;;;9.43;100.00;99180.22;5091262;28;20222;-73
2023/03/16 00:34:53;;;;;;;1.25;1.25;;;;;;;9.58;100.00;99204.44;5091289;28;20213;-73
2023/03/16 00:37:22;;;;;;;2.40;2.30;;;;;;;9.60;100.00;99207.88;5091438;28;20642;-72
2023/03/16 00:39:50;;;;;;;0.90;0.90;;;;;;;9.69;100.00;99223.47;5056182;28;20205;-72
2023/03/16 00:42:18;;;;;;;0.70;0.70;;;;;;;9.69;100.00;99213.13;5091057;28;20236;-73
2023/03/16 00:44:45;;;;;;;0.60;0.60;;;;;;;9.72;100.00;99219.16;5090994;28;20205;-72
2023/03/16 00:47:14;;;;;;;0.93;0.93;;;;;;;9.85;100.00;99233.00;5091201;28;20197;-71
2023/03/16 00:49:42;;;;;;;0.90;0.90;;;;;;;9.64;100.00;99215.69;5091081;28;20252;-71
2023/03/16 00:52:13;;;;;;;0.60;0.60;;;;;;;9.90;100.00;99239.97;5090393;28;20226;-71
2023/03/16 00:54:42;;;;;;;0.70;0.70;;;;;;;9.80;100.00;99216.63;5056494;28;20224;-72
2023/03/16 00:57:10;;;;;;;0.70;0.70;;;;;;;9.67;100.00;99209.63;5090104;28;20229;-72
2023/03/16 00:59:38;;;;;;;0.70;0.70;;;;;;;9.92;100.00;99227.00;5090837;28;20217;-71
2023/03/16 01:02:06;;;;;;;0.60;0.60;;;;;;;9.86;100.00;99233.03;5090840;28;20198;-72
2023/03/16 01:04:34;;;;;;;0.70;0.70;;;;;;;8.80;100.00;99035.09;5090949;28;20198;-71
2023/03/16 01:07:01;;;;;;;0.60;0.60;;;;;;;10.03;100.00;99240.84;5090821;28;20247;-73
2023/03/16 01:09:30;;;;;;;0.75;0.75;;;;;;;10.05;100.00;99227.94;5090988;28;20581;-71
2023/03/16 01:11:57;;;;;;;0.60;0.60;;;;;;;10.01;100.00;99247.78;5090756;28;20233;-71
2023/03/16 01:14:24;;;;;;;3.00;1.23;;;;;;;9.99;100.00;99248.63;5096535;28;20564;-71
2023/03/16 01:16:50;;;;;;;0.70;0.70;;;;;;;10.12;100.00;99253.00;5097545;28;20233;-73
2023/03/16 01:19:17;;;;;;;1.60;1.50;;;;;;;10.12;100.00;99251.25;5097725;28;20647;-71
2023/03/16 01:21:44;;;;;;;0.70;0.70;;;;;;;10.06;100.00;99258.16;5097070;28;20205;-71
2023/03/16 01:24:11;;;;;;;0.70;0.70;;;;;;;10.05;100.00;99254.69;5097248;28;20198;-71
2023/03/16 01:26:39;;;;;;;0.60;0.60;;;;;;;10.22;100.00;99257.38;5045829;28;20194;-72
2023/03/16 01:29:06;;;;;;;0.80;0.80;;;;;;;10.21;100.00;99259.09;5097329;28;20202;-72
2023/03/16 01:31:33;;;;;;;0.90;0.90;;;;;;;10.00;100.00;99240.84;5097394;28;20232;-72
2023/03/16 01:34:01;;;;;;;0.80;0.80;;;;;;;10.15;100.00;99259.06;5097003;28;20193;-72
2023/03/16 01:36:28;;;;;;;0.70;0.70;;;;;;;10.09;100.00;99261.63;5062137;28;20657;-72
2023/03/16 01:38:55;;;;;;;0.90;0.90;;;;;;;10.08;100.00;99265.06;5097432;28;20214;-72
2023/03/16 01:41:22;;;;;;;0.70;0.70;;;;;;;10.03;100.00;99255.53;5097743;28;20202;-71
2023/03/16 01:43:50;;;;;;;1.25;1.23;;;;;;;9.81;100.00;99228.72;5097524;28;20229;-72
2023/03/16 01:46:21;;;;;;;0.90;0.90;;;;;;;9.53;100.00;99180.25;5097335;28;20898;-71
2023/03/16 01:48:59;;;;;;;0.70;0.70;;;;;;;10.02;100.00;99259.00;5097238;28;20209;-72
2023/03/16 01:51:30;;;;;;;0.70;0.70;;;;;;;9.88;100.00;99252.00;5097044;28;20244;-72
2023/03/16 01:54:01;;;;;;;0.90;0.90;;;;;;;9.84;100.00;99244.25;5046721;28;20573;-72
2023/03/16 01:56:33;;;;;;;0.70;0.70;;;;;;;9.88;100.00;99235.66;5039498;28;20583;-72
2023/03/16 01:59:05;;;;;;;0.70;0.70;;;;;;;10.00;100.00;99248.63;5096943;28;20343;-72
2023/03/16 02:01:33;;;;;;;0.80;0.80;;;;;;;9.98;100.00;99250.34;5096761;28;20210;-72
2023/03/16 02:04:07;;;;;;;0.80;0.80;;;;;;;10.09;100.00;99253.84;5097000;28;20213;-72
2023/03/16 02:06:35;;;;;;;0.80;0.80;;;;;;;9.96;100.00;99259.81;5096386;28;20209;-72
2023/03/16 02:09:03;;;;;;;0.80;0.80;;;;;;;10.02;100.00;99278.00;5097460;28;20202;-72
2023/03/16 02:11:30;;;;;;;0.70;0.70;;;;;;;10.08;100.00;99278.00;5095926;28;20262;-72
2023/03/16 02:14:03;;;;;;;1.15;1.15;;;;;;;10.14;100.00;99279.75;5097042;28;20194;-73
2023/03/16 02:16:31;;;;;;;0.80;0.80;;;;;;;9.98;100.00;99278.84;5062744;28;20232;-71
2023/03/16 02:18:58;;;;;;;4.45;1.42;;;;;;;9.79;100.00;99277.88;5061012;28;20642;-71
2023/03/16 02:21:33;;;;;;;0.80;0.80;;;;;;;9.94;100.00;99285.72;5059247;28;20198;-72
2023/03/16 02:24:02;;;;;;;0.80;0.80;;;;;;;9.95;100.00;99292.63;5058002;28;20190;-71
2023/03/16 02:26:38;;;;;;;2.28;2.05;;;;;;;9.92;100.00;99294.31;5089864;28;20213;-73
2023/03/16 02:29:17;;;;;;;0.90;0.90;;;;;;;9.81;100.00;99278.72;5060006;28;20220;-73
2023/03/16 02:31:46;;;;;;;0.70;0.70;;;;;;;10.01;100.00;99304.75;5093772;28;20225;-71
2023/03/16 02:34:14;;;;;;;0.80;0.80;;;;;;;9.98;100.00;99307.31;5093398;28;20201;-72
2023/03/16 02:36:45;;;;;;;0.80;0.80;;;;;;;10.08;100.00;99313.41;5093529;28;20194;-71
2023/03/16 02:39:12;;;;;;;0.80;0.80;;;;;;;9.99;100.00;99301.25;5093678;28;20209;-71
2023/03/16 02:41:40;;;;;;;0.80;0.80;;;;;;;10.05;100.00;99311.66;5093321;28;20225;-72
2023/03/16 02:44:14;;;;;;;0.70;0.70;;;;;;;10.04;100.00;99316.81;5093678;28;20216;-71
2023/03/16 02:46:42;;;;;;;0.70;0.70;;;;;;;9.99;100.00;99311.63;5093729;28;20202;-71
2023/03/16 02:49:16;;;;;;;0.70;0.70;;;;;;;10.11;100.00;99311.69;5093558;28;20216;-71
2023/03/16 02:51:44;;;;;;;0.70;0.70;;;;;;;9.99;100.00;99315.97;5093221;28;20245;-71
2023/03/16 02:54:11;;;;;;;0.73;0.73;;;;;;;9.81;100.00;99319.31;5093220;28;20206;-71
2023/03/16 02:56:38;;;;;;;0.70;0.70;;;;;;;9.96;100.00;99321.97;5092789;28;20235;-72
2023/03/16 02:59:05;;;;;;;0.80;0.80;;;;;;;9.71;100.00;99320.97;5093221;28;20688;-71
2023/03/16 03:01:33;;;;;;;0.70;0.70;;;;;;;9.56;100.00;99310.50;5093349;28;20660;-71
2023/03/16 03:04:00;;;;;;;1.25;1.25;;;;;;;9.48;100.00;99316.50;5093079;28;20202;-71
2023/03/16 03:06:29;;;;;;;0.80;0.80;;;;;;;9.63;100.00;99321.78;5040487;28;20202;-71
2023/03/16 03:08:55;;;;;;;0.80;0.80;;;;;;;9.70;100.00;99323.56;5093111;28;20193;-71
2023/03/16 03:11:22;;;;;;;0.70;0.70;;;;;;;9.62;100.00;99305.41;5093119;28;20221;-71
2023/03/16 03:13:49;;;;;;;0.70;0.70;;;;;;;9.85;100.00;99328.81;5090522;28;20637;-71
2023/03/16 03:16:16;;;;;;;0.70;0.70;;;;;;;9.76;100.00;99337.41;5092872;28;20201;-71
2023/03/16 03:18:43;;;;;;;0.70;0.70;;;;;;;9.87;100.00;99334.88;5088524;28;20561;-71
2023/03/16 03:21:10;;;;;;;0.60;0.60;;;;;;;9.92;100.00;99341.78;5087518;28;20202;-71
2023/03/16 03:23:38;;;;;;;0.70;0.70;;;;;;;9.85;100.00;99326.22;5092319;28;20198;-72
2023/03/16 03:26:05;;;;;;;0.60;0.60;;;;;;;10.00;100.00;99353.91;5057737;28;20265;-71
2023/03/16 03:28:33;;;;;;;0.70;0.70;;;;;;;9.88;100.00;99334.03;5092523;28;20197;-72
2023/03/16 03:31:00;;;;;;;1.17;1.17;;;;;;;9.80;100.00;99357.28;5092508;28;20202;-71
2023/03/16 03:33:27;;;;;;;1.13;1.13;;;;;;;9.79;100.00;99359.84;5092000;28;20283;-71
2023/03/16 03:35:55;;;;;;;0.80;0.80;;;;;;;9.84;100.00;99361.63;5092070;28;20633;-71
2023/03/16 03:38:22;;;;;;;0.75;0.75;;;;;;;9.85;100.00;99363.34;5092422;28;20724;-71
2023/03/16 03:40:51;;;;;;;0.90;0.90;;;;;;;9.86;100.00;99361.63;5092212;28;20208;-71
2023/03/16 03:43:18;;;;;;;0.70;0.70;;;;;;;9.82;100.00;99362.44;5092030;28;20222;-71
2023/03/16 03:45:45;;;;;;;0.90;0.90;;;;;;;9.67;100.00;99364.94;5056734;28;20230;-71
2023/03/16 03:48:11;;;;;;;0.80;0.80;;;;;;;9.67;100.00;99360.63;5039096;28;20202;-71
2023/03/16 03:50:39;;;;;;;0.80;0.80;;;;;;;9.85;100.00;99365.06;5091793;28;20194;-72
2023/03/16 03:53:06;;;;;;;0.70;0.70;;;;;;;9.80;100.00;99371.94;5091703;28;20225;-71
2023/03/16 03:55:33;;;;;;;0.70;0.70;;;;;;;9.86;100.00;99370.25;5092180;28;20205;-71
2023/03/16 03:58:01;;;;;;;0.60;0.60;;;;;;;9.97;100.00;99380.69;5091458;28;20692;-71
2023/03/16 04:00:28;;;;;;;0.70;0.70;;;;;;;9.66;100.00;99368.38;5073606;28;20202;-72
2023/03/16 04:02:54;;;;;;;0.70;0.70;;;;;;;9.80;100.00;99397.81;5091493;28;20194;-71
2023/03/16 04:05:24;;;;;;;0.80;0.80;;;;;;;9.81;100.00;99402.16;5091491;28;20190;-71
2023/03/16 04:07:53;;;;;;;0.70;0.70;;;;;;;9.93;100.00;99410.00;5091254;28;20669;-71
2023/03/16 04:10:20;;;;;;;0.70;0.70;;;;;;;10.05;100.00;99404.91;5091758;28;20661;-72
2023/03/16 04:12:47;;;;;;;0.70;0.70;;;;;;;10.06;100.00;99416.97;5091320;28;20369;-72
2023/03/16 04:15:15;;;;;;;0.70;0.70;;;;;;;10.11;100.00;99410.09;5091137;28;20278;-71
2023/03/16 04:17:42;;;;;;;0.80;0.80;;;;;;;10.01;100.00;99412.63;5091089;28;20198;-72
2023/03/16 04:20:14;;;;;;;0.70;0.70;;;;;;;10.01;100.00;99418.69;5086167;28;20583;-71
2023/03/16 04:22:41;;;;;;;2.05;1.25;;;;;;;9.96;100.00;99423.81;5071595;28;20221;-71
2023/03/16 04:25:09;;;;;;;0.70;0.70;;;;;;;9.85;100.00;99391.81;5084494;28;20288;-71
2023/03/16 04:27:36;;;;;;;0.80;0.80;;;;;;;9.85;100.00;99411.66;5055849;28;20676;-72
2023/03/16 04:30:04;;;;;;;0.80;0.80;;;;;;;9.92;100.00;99429.84;5091431;28;20206;-73
2023/03/16 04:32:33;;;;;;;1.33;1.33;;;;;;;9.88;100.00;99432.41;5091421;28;20260;-72
2023/03/16 04:35:00;;;;;;;0.70;0.70;;;;;;;9.88;100.00;99428.06;5091384;28;20228;-72
2023/03/16 04:37:27;;;;;;;0.60;0.60;;;;;;;9.80;100.00;99434.94;5091272;28;20210;-72
2023/03/16 04:39:54;;;;;;;0.70;0.70;;;;;;;9.77;100.00;99444.41;5091029;28;20586;-72
2023/03/16 04:42:21;;;;;;;0.65;0.65;;;;;;;9.78;100.00;99441.81;5084046;28;20281;-73
2023/03/16 04:44:48;;;;;;;0.90;0.90;;;;;;;9.86;100.00;99447.06;5083009;28;20222;-72
2023/03/16 04:47:17;;;;;;;1.05;1.05;;;;;;;10.00;100.00;99448.03;5087935;28;20206;-72
2023/03/16 04:49:45;;;;;;;0.80;0.80;;;;;;;9.99;100.00;99456.63;5090639;28;20198;-73
2023/03/16 04:52:12;;;;;;;1.15;1.05;;;;;;;10.09;100.00;99435.16;5090442;28;20226;-70
2023/03/16 04:54:39;;;;;;;2.58;1.35;;;;;;;9.95;100.00;99445.38;5090867;28;20224;-72
2023/03/16 04:57:07;;;;;;;0.70;0.70;;;;;;;10.07;100.00;99464.47;5090824;28;20198;-72
2023/03/16 04:59:34;;;;;;;1.92;1.80;;;;;;;10.08;100.00;99472.25;5090191;28;20218;-71
2023/03/16 05:02:01;;;;;;;0.90;0.90;;;;;;;9.80;100.00;99476.38;5055433;28;20204;-73
2023/03/16 05:04:27;;;;;;;0.80;0.80;;;;;;;9.76;100.00;99471.13;5090572;28;20209;-73
2023/03/16 05:06:56;;;;;;;3.03;1.52;;;;;;;9.73;100.00;99476.28;5090419;28;20225;-73
2023/03/16 05:09:22;;;;;;;0.75;0.75;;;;;;;9.67;100.00;99476.22;5051692;28;20649;-73
2023/03/16 05:11:49;;;;;;;0.50;0.50;;;;;;;9.35;100.00;99465.56;5070460;28;20222;-74
2023/03/16 05:14:16;;;;;;;1.00;1.00;;;;;;;8.81;100.00;99464.13;5082567;28;20225;-72
2023/03/16 05:16:43;;;;;;;0.90;0.90;;;;;;;8.67;100.00;99480.34;5090023;28;20194;-72
2023/03/16 05:19:10;;;;;;;0.90;0.90;;;;;;;8.68;100.00;99484.63;5090283;28;20684;-73
2023/03/16 05:21:38;;;;;;;0.80;0.80;;;;;;;8.38;100.00;99483.38;5089538;28;20206;-73
2023/03/16 05:24:07;;;;;;;0.80;0.80;;;;;;;8.26;100.00;99490.94;5090079;28;20597;-73
2023/03/16 05:26:34;;;;;;;1.33;1.30;;;;;;;7.91;100.00;99471.47;5038521;28;20642;-73
2023/03/16 05:29:00;;;;;;;0.73;0.73;;;;;;;8.00;100.00;99492.22;5088110;28;20206;-72
2023/03/16 05:31:27;;;;;;;0.80;0.80;;;;;;;7.91;100.00;99494.69;5086282;28;20603;-71
2023/03/16 05:33:56;;;;;;;0.73;0.73;;;;;;;7.76;100.00;99508.19;5083939;28;20232;-72
2023/03/16 05:36:23;;;;;;;1.00;1.00;;;;;;;7.60;100.00;99511.34;5086432;28;20195;-72
2023/03/16 05:38:51;;;;;;;1.53;1.53;;;;;;;7.09;100.00;99425.34;5089899;28;20198;-71
2023/03/16 05:41:20;;;;;;;1.00;1.00;;;;;;;7.62;100.00;99524.28;5090309;28;20206;-72
2023/03/16 05:43:47;;;;;;;0.80;0.80;;;;;;;7.51;100.00;99508.63;5090090;28;20229;-72
2023/03/16 05:46:14;;;;;;;1.00;1.00;;;;;;;7.44;100.00;99524.81;5090214;28;20202;-72
2023/03/16 05:48:40;;;;;;;0.80;0.80;;;;;;;7.22;100.00;99533.00;5090729;28;20202;-72
2023/03/16 05:51:07;;;;;;;1.00;1.00;;;;;;;7.08;100.00;99527.56;5090150;28;20217;-72
2023/03/16 05:53:34;;;;;;;0.80;0.80;;;;;;;7.16;100.00;99533.75;5089897;28;20229;-72
2023/03/16 05:56:01;;;;;;;1.00;1.00;;;;;;;7.07;100.00;99527.53;5089583;28;20241;-72
2023/03/16 05:58:32;;;;;;;1.37;1.37;;;;;;;6.92;100.00;99490.31;5089941;28;20240;-72
2023/03/16 06:01:01;;;;;;;0.80;0.80;;;;;;;7.15;100.00;99539.75;5056901;28;20363;-73
2023/03/16 06:03:27;;;;;;;1.03;1.03;;;;;;;7.14;100.00;99544.84;5081431;28;20577;-73
2023/03/16 06:05:54;;;;;;;0.70;0.70;;;;;;;6.98;100.00;99548.84;5093989;28;20673;-73
2023/03/16 06:08:21;;;;;;;0.93;0.93;;;;;;;7.19;100.00;99543.25;5093877;28;20589;-73
2023/03/16 06:10:48;;;;;;;1.03;1.03;;;;;;;6.92;100.00;99472.25;5089952;28;20213;-72
2023/03/16 06:13:14;;;;;;;0.90;0.90;;;;;;;7.22;100.00;99538.16;5084392;28;20226;-73
2023/03/16 06:15:43;;;;;;;0.70;0.70;;;;;;;7.22;100.00;99515.81;5091805;28;20603;-73
2023/03/16 06:18:09;;;;;;;0.80;0.80;;;;;;;7.58;100.00;99574.09;5092330;28;20259;-75
2023/03/16 06:20:36;;;;;;;0.90;0.90;;;;;;;7.21;100.00;99547.59;5079839;28;20585;-74
2023/03/16 06:23:03;;;;;;;0.80;0.80;;;;;;;7.09;100.00;99567.97;5093661;28;20214;-74
2023/03/16 06:25:31;;;;;;;1.27;1.27;;;;;;;7.14;100.00;99586.97;5090834;28;20684;-74
2023/03/16 06:27:57;;;;;;;0.80;0.80;;;;;;;7.30;100.00;99583.88;5084680;28;20568;-73
2023/03/16 06:30:24;;;;;;;0.80;0.80;;;;;;;7.13;100.00;99597.25;5092911;28;20206;-72
2023/03/16 06:32:52;;;;;;;0.83;0.83;;;;;;;6.99;100.00;99594.41;5092878;28;20226;-73
2023/03/16 06:35:19;;;;;;;0.90;0.90;;;;;;;6.74;100.00;99567.22;5092013;28;20217;-72
2023/03/16 06:37:46;;;;;;;0.77;0.77;;;;;;;6.73;100.00;99573.22;5092489;28;20209;-72
2023/03/16 06:40:13;;;;;;;0.80;0.80;;;;;;;6.84;100.00;99597.53;5091716;28;20202;-73
2023/03/16 06:42:40;;;;;;;0.90;0.90;;;;;;;6.94;100.00;99608.88;5088943;28;20889;-72
2023/03/16 06:45:08;;;;;;;0.93;0.93;;;;;;;7.07;100.00;99591.97;5070263;28;20202;-74
2023/03/16 06:47:35;;;;;;;1.43;1.37;;;;;;;7.17;100.00;99620.53;5089493;28;20194;-74
2023/03/16 06:50:04;;;;;;;0.60;0.60;;;;;;;6.69;100.00;99560.22;5091441;28;20198;-74
2023/03/16 06:52:31;;;;;;;0.90;0.90;;;;;;;6.99;100.00;99631.31;5092260;28;20569;-73
2023/03/16 06:54:58;;;;;;;0.70;0.70;;;;;;;6.85;100.00;99609.53;5057068;28;20289;-73
2023/03/16 06:57:25;;;;;;;0.87;0.87;;;;;;;7.06;100.00;99640.09;5038118;28;20646;-74
2023/03/16 06:59:52;;;;;;;0.90;0.90;;;;;;;6.82;100.00;99630.09;5092666;28;20198;-72
2023/03/16 07:02:22;;;;;;;3.43;3.23;;;;;;;6.91;100.00;99637.16;5092249;28;20206;-72
2023/03/16 07:04:49;;;;;;;0.80;0.80;;;;;;;6.90;100.00;99650.88;5093149;28;20201;-73
2023/03/16 07:07:18;;;;;;;0.90;0.90;;;;;;;7.04;100.00;99658.91;5041043;28;20202;-72
2023/03/16 07:09:45;;;;;;;0.70;0.70;;;;;;;6.88;100.00;99661.13;5092311;28;20638;-72
2023/03/16 07:12:12;;;;;;;2.90;2.70;;;;;;;6.85;100.00;99663.66;5092000;28;20206;-72
2023/03/16 07:14:40;;;;;;;0.80;0.80;;;;;;;6.92;100.00;99651.81;5092090;28;20234;-74
2023/03/16 07:17:07;;;;;;;2.80;2.60;;;;;;;7.02;100.00;99658.91;5092489;28;20202;-72
2023/03/16 07:19:34;;;;;;;0.73;0.73;;;;;;;7.01;100.00;99677.75;5091652;28;20198;-72
2023/03/16 07:22:02;;;;;;;0.87;0.87;;;;;;;6.95;100.00;99673.34;5092356;28;20194;-73
2023/03/16 07:24:31;;;;;;;0.70;0.70;;;;;;;6.71;100.00;99604.91;5092278;28;20234;-74
2023/03/16 07:26:58;;;;;;;0.97;0.97;;;;;;;6.93;100.00;99664.72;5086775;28;20198;-72
2023/03/16 07:29:25;;;;;;;0.73;0.73;;;;;;;6.93;100.00;99690.47;5083743;28;20205;-72
2023/03/16 07:31:52;;;;;;;0.90;0.90;;;;;;;7.03;100.00;99691.53;5092468;28;20202;-72
2023/03/16 07:34:19;;;;;;;0.80;0.80;;;;;;;7.05;100.00;99704.47;5092042;28;20233;-72
2023/03/16 07:36:47;;;;;;;0.90;0.90;;;;;;;7.05;100.00;99695.03;5038979;28;20206;-72
2023/03/16 07:39:16;;;;;;;0.90;0.90;;;;;;;7.01;100.00;99677.75;5092115;28;20198;-72
2023/03/16 07:41:45;;;;;;;0.70;0.70;;;;;;;7.15;100.00;99699.56;5091884;28;20202;-73
2023/03/16 07:44:13;;;;;;;0.70;0.70;;;;;;;7.02;100.00;99707.88;5091942;28;20209;-73
2023/03/16 07:46:40;;;;;;;0.90;0.90;;;;;;;6.88;100.00;99701.53;5091776;28;20202;-72
2023/03/16 07:49:08;;;;;;;0.90;0.90;;;;;;;7.07;100.00;99703.66;5091817;28;20217;-72
2023/03/16 07:51:35;;;;;;;1.37;1.27;;;;;;;7.02;100.00;99694.09;5091668;28;20252;-73
2023/03/16 07:54:03;;;;;;;0.90;0.90;;;;;;;6.85;100.00;99693.69;5056238;28;20225;-73
2023/03/16 07:56:29;;;;;;;0.80;0.80;;;;;;;6.78;100.00;99710.72;5091787;28;20202;-73
2023/03/16 07:58:58;;;;;;;1.57;1.57;;;;;;;6.80;100.00;99703.03;5091663;28;20229;-74
2023/03/16 08:01:24;;;;;;;0.70;0.70;;;;;;;6.75;100.00;99694.31;5091661;28;20221;-71
2023/03/16 08:03:52;;;;;;;0.80;0.80;;;;;;;6.84;100.00;99720.31;5091431;28;20233;-72
2023/03/16 08:06:19;;;;;;;0.80;0.80;;;;;;;6.80;100.00;99723.66;5091505;28;20259;-73
2023/03/16 08:08:46;;;;;;;0.80;0.80;;;;;;;6.70;100.00;99720.00;5091507;28;20202;-72
2023/03/16 08:11:13;;;;;;;0.80;0.80;;;;;;;6.72;100.00;99718.31;5077058;28;20228;-72
2023/03/16 08:13:42;;;;;;;0.70;0.70;;;;;;;6.96;100.00;99738.63;5091446;28;20218;-72
2023/03/16 08:16:12;;;;;;;0.80;0.80;;;;;;;7.22;100.00;99734.97;5073297;28;20222;-73
2023/03/16 08:18:39;;;;;;;0.70;0.70;;;;;;;6.76;100.00;99720.13;5075051;28;20195;-72
2023/03/16 08:21:05;;;;;;;0.90;0.90;;;;;;;6.98;100.00;99737.84;5083945;28;20198;-73
2023/03/16 08:23:32;;;;;;;1.20;1.20;;;;;;;7.10;100.00;99733.81;5090210;28;20210;-72
2023/03/16 08:25:59;;;;;;;0.70;0.70;;;;;;;7.38;100.00;99749.91;5091247;28;20271;-72
2023/03/16 08:28:26;;;;;;;0.70;0.70;;;;;;;7.59;100.00;99751.25;5076686;28;20198;-72
2023/03/16 08:30:57;;;;;;;2.40;1.73;;;;;;;7.46;100.00;99755.25;5091169;28;20194;-72
2023/03/16 08:33:25;;;;;;;0.97;0.97;;;;;;;7.37;100.00;99761.09;5090869;28;20230;-72
2023/03/16 08:35:52;;;;;;;0.80;0.80;;;;;;;7.26;100.00;99766.84;5091023;28;20209;-72
2023/03/16 08:38:19;;;;;;;0.90;0.90;;;;;;;7.24;100.00;99765.94;5091242;28;20590;-71
2023/03/16 08:40:47;;;;;;;0.77;0.77;;;;;;;7.21;100.00;99753.84;5089168;28;20960;-72
2023/03/16 08:43:14;;;;;;;0.90;0.90;;;;;;;7.23;100.00;99759.91;5074059;28;20724;-71
2023/03/16 08:45:43;;;;;;;0.67;0.67;;;;;;;7.13;100.00;99739.91;5074275;28;20206;-71
2023/03/16 08:48:11;;;;;;;0.73;0.73;;;;;;;7.08;100.00;99746.66;5087612;28;20205;-71
2023/03/16 08:50:42;;;;;;;1.03;1.03;;;;;;;7.03;100.00;99763.72;5072123;28;20234;-71
2023/03/16 08:53:10;;;;;;;1.00;1.00;;;;;;;6.78;100.00;99756.22;5091019;28;20202;-72
2023/03/16 08:55:37;;;;;;;0.70;0.70;;;;;;;7.00;100.00;99792.00;5076569;28;20206;-72
2023/03/16 08:58:05;;;;;;;0.90;0.90;;;;;;;7.09;100.00;99794.81;5090874;28;20225;-72
2023/03/16 09:00:32;;;;;;;0.80;0.80;;;;;;;7.06;100.00;99796.44;5090615;28;20202;-72
2023/03/16 09:02:59;;;;;;;0.80;0.80;;;;;;;7.15;100.00;99794.94;5085318;28;20610;-72
2023/03/16 09:05:26;;;;;;;0.73;0.73;;;;;;;7.27;100.00;99784.06;5082450;28;20198;-73
2023/03/16 09:07:55;;;;;;;0.80;0.80;;;;;;;7.55;100.00;99807.06;5090958;28;20213;-72
2023/03/16 09:10:23;;;;;;;0.70;0.70;;;;;;;7.32;100.00;99800.50;5090846;28;20205;-72
2023/03/16 09:12:50;;;;;;;0.70;0.70;;;;;;;7.16;100.00;99780.34;5090779;28;20687;-71
2023/03/16 09:15:19;;;;;;;0.77;0.77;;;;;;;7.05;100.00;99761.19;5090519;28;20221;-72
2023/03/16 09:17:46;;;;;;;1.43;1.43;;;;;;;7.26;100.00;99797.78;5090705;28;20577;-72
2023/03/16 09:20:15;;;;;;;0.80;0.80;;;;;;;7.36;100.00;99810.91;5090938;28;20194;-72
2023/03/16 09:22:41;;;;;;;1.00;1.00;;;;;;;7.36;100.00;99816.06;5090744;28;20675;-72
2023/03/16 09:25:10;;;;;;;0.80;0.80;;;;;;;7.43;100.00;99814.50;5090900;28;20213;-72
2023/03/16 09:27:37;;;;;;;0.80;0.80;;;;;;;7.22;100.00;99799.41;5090536;28;20202;-72
2023/03/16 09:30:05;;;;;;;0.77;0.77;;;;;;;7.17;100.00;99819.03;5090642;28;20197;-72
2023/03/16 09:32:32;;;;;;;0.70;0.70;;;;;;;7.25;100.00;99814.94;5090847;28;20202;-72
2023/03/16 09:34:59;;;;;;;0.70;0.70;;;;;;;6.99;100.00;99798.84;5092914;28;20221;-71
2023/03/16 09:37:26;;;;;;;1.00;1.00;;;;;;;7.04;100.00;99826.44;5059352;28;20202;-71
2023/03/16 09:39:53;;;;;;;1.83;1.73;;;;;;;7.02;100.00;99833.28;5094815;28;20206;-72
2023/03/16 09:42:30;;;;;;;0.80;0.80;;;;;;;7.37;100.00;99825.56;5094379;28;20205;-72
2023/03/16 09:45:09;;;;;;;5.40;2.63;;;;;;;7.32;100.00;99814.25;5042588;28;20198;-72
2023/03/16 09:47:37;;;;;;;6.90;2.03;;;;;;;7.51;100.00;99835.31;5094959;28;20255;-72
2023/03/16 09:50:08;;;;;;;0.90;0.90;;;;;;;7.51;100.00;99845.63;5094585;28;20568;-72
2023/03/16 09:52:43;;;;;;;0.80;0.80;;;;;;;7.72;100.00;99847.00;5092381;28;20198;-70
2023/03/16 09:55:19;;;;;;;1.23;1.23;;;;;;;7.94;100.00;99848.34;5093685;28;20225;-72
2023/03/16 09:57:51;;;;;;;0.90;0.90;;;;;;;7.95;100.00;99860.44;5093989;28;20640;-71
2023/03/16 10:00:20;;;;;;;1.00;1.00;;;;;;;8.14;100.00;99862.53;5094097;28;20198;-71
2023/03/16 10:03:11;;;;;;;0.90;0.90;;;;;;;8.38;100.00;99867.41;5059275;28;20209;-71
2023/03/16 10:05:39;;;;;;;0.93;0.93;;;;;;;8.24;100.00;99872.22;5093890;28;20205;-72
2023/03/16 10:08:13;;;;;;;0.80;0.80;;;;;;;8.19;100.00;99865.22;5093848;28;20198;-72
2023/03/16 10:10:58;;;;;;;1.33;1.33;;;;;;;7.94;100.00;99856.97;5093840;28;20210;-71
2023/03/16 10:13:34;;;;;;;0.70;0.70;;;;;;;7.56;100.00;99867.28;5090094;28;20203;-72
2023/03/16 10:16:08;;;;;;;0.80;0.80;;;;;;;7.57;100.00;99861.25;5065777;28;20206;-71
2023/03/16 10:18:41;;;;;;;0.80;0.80;;;;;;;7.62;100.00;99864.81;5093613;28;20198;-71
2023/03/16 10:21:13;;;;;;;0.80;0.80;;;;;;;7.41;100.00;99841.97;5093531;28;20202;-71
2023/03/16 10:23:41;;;;;;;0.70;0.70;;;;;;;7.43;100.00;99868.66;5093528;28;20225;-72
2023/03/16 10:26:13;;;;;;;1.17;1.17;;;;;;;7.61;100.00;99863.06;5083494;28;20233;-72
2023/03/16 10:28:44;;;;;;;0.63;0.63;;;;;;;7.55;100.00;99868.09;5090521;28;20202;-73
2023/03/16 10:31:12;;;;;;;0.80;0.80;;;;;;;7.66;100.00;99867.53;5084215;28;20264;-71
2023/03/16 10:33:40;;;;;;;1.30;1.20;;;;;;;7.38;100.00;99855.66;5089018;28;20198;-71
2023/03/16 10:36:15;;;;;;;0.70;0.70;;;;;;;7.31;100.00;99876.13;5093321;28;20197;-71
2023/03/16 10:38:45;;;;;;;0.87;0.87;;;;;;;7.22;100.00;99850.97;5093169;28;20702;-72
2023/03/16 10:41:27;;;;;;;0.70;0.70;;;;;;;7.48;100.00;99878.28;5093147;28;20275;-73
2023/03/16 10:43:57;;;;;;;1.07;1.07;;;;;;;7.15;100.00;99843.94;5093532;28;20206;-72
2023/03/16 10:46:26;;;;;;;1.03;1.03;;;;;;;7.05;100.00;99885.78;5056887;28;20230;-73
2023/03/16 10:48:58;;;;;;;1.30;1.20;;;;;;;6.99;100.00;99871.00;5093194;28;20214;-73
2023/03/16 10:51:28;;;;;;;0.80;0.80;;;;;;;7.04;100.00;99855.69;5093107;28;20207;-73
2023/03/16 10:54:01;;;;;;;0.70;0.70;;;;;;;7.20;100.00;99878.44;5092997;28;20206;-72
2023/03/16 10:56:34;;;;;;;1.00;1.00;;;;;;;7.48;100.00;99878.28;5093042;28;20202;-74
2023/03/16 10:59:12;;;;;;;1.00;1.00;;;;;;;7.29;100.00;99873.50;5092940;28;20225;-74
2023/03/16 11:01:39;;;;;;;0.70;0.70;;;;;;;6.93;100.00;99876.03;5072501;28;20195;-75
2023/03/16 11:04:15;;;;;;;0.87;0.87;;;;;;;7.13;100.00;99855.03;5050582;28;20213;-75
2023/03/16 11:06:48;;;;;;;0.90;0.90;;;;;;;6.96;100.00;99849.44;5079144;28;20244;-76
2023/03/16 11:09:22;;;;;;;1.00;1.00;;;;;;;6.88;100.00;99856.13;5092528;28;20214;-77
2023/03/16 11:11:50;;;;;;;0.80;0.80;;;;;;;6.81;100.00;99865.38;5079296;28;20194;-70
2023/03/16 11:14:21;;;;;;;0.80;0.80;;;;;;;6.93;100.00;99875.16;5092476;28;20236;-70
2023/03/16 11:16:53;;;;;;;0.80;0.80;;;;;;;6.89;100.00;99873.31;5092551;28;20197;-71
2023/03/16 11:19:26;;;;;;;0.90;0.90;;;;;;;7.14;100.00;99877.41;5092615;28;20209;-71
2023/03/16 11:22:00;;;;;;;0.70;0.70;;;;;;;7.10;100.00;99867.88;5072652;28;20273;-71
2023/03/16 11:24:37;;;;;;;1.27;1.27;;;;;;;7.04;100.00;99867.69;5072354;28;20198;-71
2023/03/16 11:27:09;;;;;;;0.80;0.80;;;;;;;7.14;100.00;99875.69;5072204;28;20202;-71
2023/03/16 11:29:50;;;;;;;0.77;0.77;;;;;;;7.21;100.00;99866.41;5072493;28;20217;-71
2023/03/16 11:32:22;;;;;;;1.47;1.47;;;;;;;7.27;100.00;99869.16;5072327;28;20255;-71
2023/03/16 11:34:49;;;;;;;2.07;1.97;;;;;;;7.23;100.00;99855.31;5072095;28;20233;-71
2023/03/16 11:37:30;;;;;;;1.33;1.33;;;;;;;7.43;100.00;99869.53;5072244;28;20210;-71